ADDS METAR Data INFO
IDs: Format: Raw Decoded Include TAF

Data at: 1429 UTC 20 Sep 2017

KCVB 201415Z AUTO 15005KT 10SM BKN014 OVC020 27/22 A2995 RMK AO2 T02700219
KCVB 201355Z AUTO 14008KT 10SM BKN012 OVC017 26/23 A2995 RMK AO2 T02630232
KCVB 201335Z AUTO 14009KT 10SM OVC012 26/23 A2994 RMK AO2 T02580232
KCVB 201315Z AUTO 15007KT 10SM OVC012 26/23 A2994 RMK AO2 T02550232
KCVB 201255Z AUTO 15007KT 10SM OVC012 25/23 A2993 RMK AO2 T02540231
KCVB 201235Z AUTO 15007KT 10SM OVC012 25/23 A2993 RMK AO2 T02520232
KCVB 201215Z AUTO 15009KT 10SM OVC012 25/23 A2993 RMK AO2 T02510234
KCVB 201155Z AUTO 15008KT 10SM OVC010 25/24 A2992 RMK AO2 T02510235 10263 20247
KCVB 201135Z AUTO 14006KT 10SM OVC010 25/24 A2992 RMK AO2 LTG DSNT W T02500235
KCVB 201115Z AUTO 15006KT 10SM OVC010 25/24 A2992 RMK AO2 T02510235
KCVB 201055Z AUTO 14006KT 10SM OVC008 25/24 A2991 RMK AO2 T02510235
KCVB 201035Z AUTO 15005KT 10SM OVC008 25/24 A2991 RMK AO2 T02510235
KCVB 201015Z AUTO 14005KT 10SM OVC008 25/24 A2991 RMK AO2 T02510235
KCVB 200955Z AUTO 15005KT 10SM OVC010 25/24 A2990 RMK AO2 T02510235
KCVB 200935Z AUTO 14005KT 10SM OVC010 25/23 A2990 RMK AO2 T02510234
KCVB 200915Z AUTO 13004KT 10SM OVC010 25/23 A2989 RMK AO2 T02500230
KCVB 200855Z AUTO 12004KT 10SM OVC010 25/23 A2989 RMK AO2 T02500226
KCVB 200835Z AUTO 12004KT 10SM BKN012 25/22 A2989 RMK AO2 T02470221
KCVB 200815Z AUTO 11004KT 10SM SCT012 25/21 A2990 RMK AO2 T02490213
KCVB 200755Z AUTO 13005KT 10SM CLR 25/21 A2990 RMK AO2 T02500212
KCVB 200735Z AUTO 13005KT 10SM CLR 25/21 A2991 RMK AO2 T02520211
KCVB 200715Z AUTO 12005KT 10SM CLR 25/21 A2991 RMK AO2 T02530210
KCVB 200655Z AUTO 12004KT 10SM CLR 26/21 A2991 RMK AO2 T02560210
KCVB 200635Z AUTO 12004KT 10SM CLR 26/21 A2991 RMK AO2 T02580210
KCVB 200615Z AUTO 12004KT 10SM CLR 26/21 A2991 RMK AO2 T02610210
KCVB 200555Z AUTO 13004KT 10SM CLR 26/21 A2991 RMK AO2 T02630208 10328 20263 403620252
KCVB 200535Z AUTO 12005KT 10SM CLR 27/21 A2991 RMK AO2 T02660207
KCVB 200515Z AUTO 13006KT 10SM CLR 27/21 A2991 RMK AO2 T02700207
KCVB 200455Z AUTO 14006KT 10SM CLR 27/21 A2991 RMK AO2 T02720207
KCVB 200435Z AUTO 14009KT 10SM CLR 28/21 A2990 RMK AO2 T02760206
KCVB 200415Z AUTO 15009KT 10SM CLR 28/21 A2991 RMK AO2 T02790205
KCVB 200355Z AUTO 15008KT 10SM CLR 28/20 A2990 RMK AO2 T02810202
KCVB 200335Z AUTO 15009KT 10SM CLR 29/20 A2989 RMK AO2 T02850201
KCVB 200315Z AUTO 14007KT 10SM CLR 29/20 A2988 RMK AO2 T02860202
KCVB 200255Z AUTO 13005KT 10SM CLR 29/20 A2987 RMK AO2 T02900203
KCVB 200235Z AUTO 12008KT 10SM CLR 29/20 A2986 RMK AO2 T02930203
KCVB 200215Z AUTO 14008KT 10SM CLR 30/21 A2985 RMK AO2 T02970205
KCVB 200155Z AUTO 13008KT 10SM CLR 30/21 A2985 RMK AO2 T03000205
KCVB 200135Z AUTO 14008KT 10SM CLR 31/21 A2985 RMK AO2 T03050205
KCVB 200115Z AUTO 14012G16KT 10SM CLR 31/20 A2984 RMK AO2 T03100202
KCVB 200055Z AUTO 14012G16KT 10SM CLR 31/19 A2983 RMK AO2 LTG DSNT SW T03130194
KCVB 200035Z AUTO 13008G15KT 10SM -DZ CLR 32/18 A2984 RMK AO2 T03190183
KCVB 200015Z AUTO 12008KT 10SM CLR 33/17 A2982 RMK AO2 LTG DSNT SW T03250170
KCVB 192355Z AUTO 13005KT 10SM SCT120 33/17 A2984 RMK AO2 LTG DSNT SW T03290167 10362 20321
KCVB 192335Z AUTO 13006KT 10SM CLR 33/17 A2984 RMK AO2 T03330165
KCVB 192315Z AUTO 12006KT 10SM CLR 34/17 A2984 RMK AO2 LTG DSNT SW T03370165
KCVB 192255Z AUTO 14006KT 10SM CLR 34/17 A2984 RMK AO2 LTG DSNT SW AND W T03400165
KCVB 192235Z AUTO 16007KT 10SM CLR 35/17 A2982 RMK AO2 LTG DSNT W T03450166
KCVB 192215Z AUTO 16008KT 10SM CLR 35/17 A2982 RMK AO2 T03460167
KCVB 192155Z AUTO 15008KT 10SM SCT060 35/17 A2983 RMK AO2 T03490169
KCVB 192135Z AUTO 16006G14KT 10SM SCT060 35/17 A2984 RMK AO2 T03510171
KCVB 192110Z AUTO 16008KT 10SM BKN060 BKN075 35/17 A2985 RMK AO2 T03500172
KCVB 192055Z AUTO 12008G18KT 10SM SCT060 BKN075 BKN085 35/18 A2985 RMK AO2 T03490175
KCVB 192035Z AUTO 17007G17KT 10SM SCT050 SCT070 SCT085 35/17 A2986 RMK AO2 T03510172
KCVB 192015Z AUTO 17009KT 10SM SCT050 SCT070 36/17 A2987 RMK AO2 T03620174
KCVB 191955Z AUTO 17008G14KT 150V220 10SM SCT050 SCT080 36/18 A2988 RMK AO2 T03560176
KCVB 191935Z AUTO 15010KT 10SM SCT050 SCT070 34/18 A2989 RMK AO2 T03440181
KCVB 191915Z AUTO 15008KT 10SM SCT048 SCT060 SCT070 34/18 A2991 RMK AO2 T03440180
KCVB 191855Z AUTO 16007G14KT 10SM SCT046 BKN060 BKN085 33/19 A2992 RMK AO2 T03330186
KCVB 191835Z AUTO 17008KT 140V200 10SM BKN046 BKN050 BKN085 33/19 A2993 RMK AO2 T03270187
KCVB 191815Z AUTO 18009KT 140V200 10SM BKN043 BKN049 34/19 A2994 RMK AO2 T03400189
KCVB 191755Z AUTO 19009G15KT 10SM BKN039 BKN045 33/19 A2995 RMK AO2 T03320193 10332 20255
KCVB 191735Z AUTO 15011G16KT 10SM OVC037 32/20 A2996 RMK AO2 T03210196
KCVB 191715Z AUTO 17007G15KT 10SM BKN033 OVC041 31/20 A2997 RMK AO2 T03110197
KCVB 191655Z AUTO 17011G14KT 10SM BKN031 31/20 A2997 RMK AO2 T03050203
KCVB 191635Z AUTO 18007KT 10SM BKN029 30/21 A2998 RMK AO2 T03000206
KCVB 191615Z AUTO 17009KT 10SM BKN029 30/21 A2998 RMK AO2 T03010206
KCVB 191555Z AUTO 16008KT 10SM SCT021 OVC028 30/21 A2999 RMK AO2 T03010210
KCVB 191535Z AUTO 17007KT 10SM BKN019 BKN028 29/21 A2999 RMK AO2 T02900211
KCVB 191515Z AUTO 16010KT 10SM BKN016 OVC026 28/22 A2999 RMK AO2 T02830215
KCVB 191455Z AUTO 16010KT 10SM BKN016 OVC026 27/22 A2999 RMK AO2 T02700215
KCVB 191435Z AUTO 15008KT 10SM BKN016 OVC024 27/22 A2999 RMK AO2 T02690218
KCVB 191415Z AUTO 16008KT 10SM OVC016 27/22 A2999 RMK AO2 T02660219
KCVB 191355Z AUTO 14007KT 10SM BKN015 OVC021 27/23 A2998 RMK AO2 T02650230
KCVB 191335Z AUTO 15006KT 10SM BKN013 OVC018 26/23 A2997 RMK AO2 T02600233
KCVB 191315Z AUTO 15007KT 7SM OVC011 26/24 A2997 RMK AO2 T02570235
KCVB 191255Z AUTO 14004KT 7SM OVC011 26/24 A2996 RMK AO2 T02560235
KCVB 191235Z AUTO 16004KT 7SM OVC011 26/24 A2996 RMK AO2 T02560235
KCVB 191215Z AUTO 16008KT 10SM OVC011 26/24 A2996 RMK AO2 T02550235
KCVB 191155Z AUTO 16005KT 10SM OVC011 26/24 A2995 RMK AO2 T02550235 10264 20252
KCVB 191135Z AUTO 15005KT 10SM OVC011 26/24 A2995 RMK AO2 T02560235
KCVB 191115Z AUTO 13004KT 10SM OVC011 26/24 A2995 RMK AO2 T02560237
KCVB 191055Z AUTO 14004KT 10SM OVC011 26/24 A2995 RMK AO2 T02550236
KCVB 191035Z AUTO 14004KT 10SM OVC011 26/24 A2995 RMK AO2 T02550237
KCVB 191015Z AUTO 15005KT 10SM OVC011 26/24 A2994 RMK AO2 T02550237
KCVB 190955Z AUTO 14004KT 10SM OVC011 25/24 A2995 RMK AO2 T02520236
KCVB 190935Z AUTO 13003KT 10SM OVC011 25/24 A2994 RMK AO2 T02520236
KCVB 190915Z AUTO 14004KT 10SM BKN011 25/24 A2994 RMK AO2 T02520235
KCVB 190855Z AUTO 13004KT 10SM OVC011 25/24 A2995 RMK AO2 T02540236
KCVB 190835Z AUTO 14005KT 10SM OVC013 26/24 A2995 RMK AO2 T02550235
KCVB 190815Z AUTO 14005KT 10SM OVC013 26/23 A2995 RMK AO2 T02560232
KCVB 190755Z AUTO 14005KT 10SM OVC013 26/23 A2996 RMK AO2 T02590226
KCVB 190735Z AUTO 14006KT 10SM OVC013 26/23 A2995 RMK AO2 T02600225
KCVB 190715Z AUTO 13003KT 10SM OVC013 26/22 A2995 RMK AO2 T02600223
KCVB 190655Z AUTO 14005KT 10SM OVC013 26/22 A2996 RMK AO2 T02610221
KCVB 190635Z AUTO 14006KT 10SM BKN015 26/22 A2995 RMK AO2 T02610220
KCVB 190615Z AUTO 14007KT 10SM SCT015 26/22 A2995 RMK AO2 T02610215
KCVB 190555Z AUTO 14006KT 10SM SCT070 26/21 A2995 RMK AO2 T02640211 10325 20264 403630243
KCVB 190535Z AUTO 14007KT 10SM SCT070 27/21 A2996 RMK AO2 T02670212
KCVB 190515Z AUTO 13006KT 10SM CLR 27/21 A2996 RMK AO2 T02680205
KCVB 190455Z AUTO 15007KT 10SM CLR 27/21 A2996 RMK AO2 T02720206
KCVB 190435Z AUTO 14007G14KT 10SM CLR 28/20 A2996 RMK AO2 T02760203
KCVB 190415Z AUTO 14008KT 10SM CLR 28/21 A2995 RMK AO2 T02790205
KCVB 190355Z AUTO 14008KT 10SM CLR 28/21 A2995 RMK AO2 T02810210
KCVB 190335Z AUTO 13008KT 10SM CLR 28/22 A2995 RMK AO2 T02830215
KCVB 190315Z AUTO 13008KT 10SM CLR 29/22 A2995 RMK AO2 T02860216
KCVB 190255Z AUTO 13008KT 10SM CLR 29/22 A2994 RMK AO2 T02880215
KCVB 190235Z AUTO 13007KT 10SM CLR 29/21 A2994 RMK AO2 T02900210